sensor_id;sensor_type;location;lat;lon;timestamp;P1;durP1;ratioP1;P2;durP2;ratioP2
30307;SDS011;17114;52.314;8.910;2024-01-10T00:01:06;18.60;;;8.93;;
30307;SDS011;17114;52.314;8.910;2024-01-10T00:03:33;18.42;;;8.77;;
30307;SDS011;17114;52.314;8.910;2024-01-10T00:06:01;19.77;;;8.75;;
30307;SDS011;17114;52.314;8.910;2024-01-10T00:08:30;21.60;;;9.13;;
30307;SDS011;17114;52.314;8.910;2024-01-10T00:10:57;22.48;;;8.90;;
30307;SDS011;17114;52.314;8.910;2024-01-10T00:13:24;22.58;;;10.02;;
30307;SDS011;17114;52.314;8.910;2024-01-10T00:15:52;17.85;;;8.70;;
30307;SDS011;17114;52.314;8.910;2024-01-10T00:18:19;20.08;;;9.00;;
30307;SDS011;17114;52.314;8.910;2024-01-10T00:20:46;16.88;;;8.35;;
30307;SDS011;17114;52.314;8.910;2024-01-10T00:23:13;21.42;;;9.35;;
30307;SDS011;17114;52.314;8.910;2024-01-10T00:25:41;21.08;;;8.95;;
30307;SDS011;17114;52.314;8.910;2024-01-10T00:28:08;23.63;;;9.88;;
30307;SDS011;17114;52.314;8.910;2024-01-10T00:30:35;18.13;;;8.05;;
30307;SDS011;17114;52.314;8.910;2024-01-10T00:33:02;21.63;;;8.65;;
30307;SDS011;17114;52.314;8.910;2024-01-10T00:35:29;18.65;;;8.85;;
30307;SDS011;17114;52.314;8.910;2024-01-10T00:37:56;17.98;;;8.25;;
30307;SDS011;17114;52.314;8.910;2024-01-10T00:40:23;21.10;;;8.63;;
30307;SDS011;17114;52.314;8.910;2024-01-10T00:42:50;19.15;;;8.73;;
30307;SDS011;17114;52.314;8.910;2024-01-10T00:45:17;20.35;;;9.45;;
30307;SDS011;17114;52.314;8.910;2024-01-10T00:47:44;21.45;;;8.68;;
30307;SDS011;17114;52.314;8.910;2024-01-10T00:50:11;22.23;;;9.30;;
30307;SDS011;17114;52.314;8.910;2024-01-10T00:52:38;21.55;;;9.10;;
30307;SDS011;17114;52.314;8.910;2024-01-10T00:55:05;20.40;;;8.88;;
30307;SDS011;17114;52.314;8.910;2024-01-10T00:57:32;22.52;;;9.98;;
30307;SDS011;17114;52.314;8.910;2024-01-10T01:00:00;16.63;;;8.90;;
30307;SDS011;17114;52.314;8.910;2024-01-10T01:02:27;19.98;;;9.10;;
30307;SDS011;17114;52.314;8.910;2024-01-10T01:04:54;21.08;;;8.95;;
30307;SDS011;17114;52.314;8.910;2024-01-10T01:07:21;18.10;;;8.68;;
30307;SDS011;17114;52.314;8.910;2024-01-10T01:09:48;23.95;;;8.73;;
30307;SDS011;17114;52.314;8.910;2024-01-10T01:12:15;19.30;;;9.05;;
30307;SDS011;17114;52.314;8.910;2024-01-10T01:14:42;22.02;;;9.50;;
30307;SDS011;17114;52.314;8.910;2024-01-10T01:17:09;23.15;;;9.60;;
30307;SDS011;17114;52.314;8.910;2024-01-10T01:19:36;22.27;;;9.63;;
30307;SDS011;17114;52.314;8.910;2024-01-10T01:22:03;26.13;;;9.88;;
30307;SDS011;17114;52.314;8.910;2024-01-10T01:24:30;25.30;;;9.88;;
30307;SDS011;17114;52.314;8.910;2024-01-10T01:26:57;22.02;;;9.45;;
30307;SDS011;17114;52.314;8.910;2024-01-10T01:29:24;22.35;;;9.27;;
30307;SDS011;17114;52.314;8.910;2024-01-10T01:31:51;23.45;;;9.88;;
30307;SDS011;17114;52.314;8.910;2024-01-10T01:34:19;21.35;;;9.23;;
30307;SDS011;17114;52.314;8.910;2024-01-10T01:36:46;19.30;;;9.35;;
30307;SDS011;17114;52.314;8.910;2024-01-10T01:39:13;28.33;;;10.93;;
30307;SDS011;17114;52.314;8.910;2024-01-10T01:41:40;23.15;;;9.15;;
30307;SDS011;17114;52.314;8.910;2024-01-10T01:44:07;21.30;;;9.70;;
30307;SDS011;17114;52.314;8.910;2024-01-10T01:46:34;19.45;;;8.77;;
30307;SDS011;17114;52.314;8.910;2024-01-10T01:49:02;24.33;;;11.60;;
30307;SDS011;17114;52.314;8.910;2024-01-10T01:51:29;27.00;;;10.65;;
30307;SDS011;17114;52.314;8.910;2024-01-10T01:53:58;25.90;;;10.07;;
30307;SDS011;17114;52.314;8.910;2024-01-10T01:56:25;24.02;;;9.63;;
30307;SDS011;17114;52.314;8.910;2024-01-10T01:58:52;23.95;;;10.80;;
30307;SDS011;17114;52.314;8.910;2024-01-10T02:01:20;24.83;;;10.20;;
30307;SDS011;17114;52.314;8.910;2024-01-10T02:03:48;22.52;;;9.68;;
30307;SDS011;17114;52.314;8.910;2024-01-10T02:06:15;24.55;;;9.23;;
30307;SDS011;17114;52.314;8.910;2024-01-10T02:08:42;21.02;;;9.73;;
30307;SDS011;17114;52.314;8.910;2024-01-10T02:11:09;23.30;;;10.05;;
30307;SDS011;17114;52.314;8.910;2024-01-10T02:13:36;26.75;;;10.15;;
30307;SDS011;17114;52.314;8.910;2024-01-10T02:16:03;23.80;;;10.45;;
30307;SDS011;17114;52.314;8.910;2024-01-10T02:18:31;27.27;;;10.48;;
30307;SDS011;17114;52.314;8.910;2024-01-10T02:20:58;19.98;;;9.93;;
30307;SDS011;17114;52.314;8.910;2024-01-10T02:23:25;23.45;;;9.18;;
30307;SDS011;17114;52.314;8.910;2024-01-10T02:25:52;25.70;;;10.27;;
30307;SDS011;17114;52.314;8.910;2024-01-10T02:28:19;22.98;;;10.23;;
30307;SDS011;17114;52.314;8.910;2024-01-10T02:30:46;25.90;;;10.20;;
30307;SDS011;17114;52.314;8.910;2024-01-10T02:33:13;23.98;;;10.20;;
30307;SDS011;17114;52.314;8.910;2024-01-10T02:35:40;24.95;;;10.45;;
30307;SDS011;17114;52.314;8.910;2024-01-10T02:38:07;24.77;;;11.10;;
30307;SDS011;17114;52.314;8.910;2024-01-10T02:40:34;26.70;;;10.88;;
30307;SDS011;17114;52.314;8.910;2024-01-10T02:43:01;26.10;;;11.02;;
30307;SDS011;17114;52.314;8.910;2024-01-10T02:45:29;27.30;;;11.52;;
30307;SDS011;17114;52.314;8.910;2024-01-10T02:47:56;24.85;;;10.90;;
30307;SDS011;17114;52.314;8.910;2024-01-10T02:50:23;26.83;;;11.18;;
30307;SDS011;17114;52.314;8.910;2024-01-10T02:52:50;23.90;;;10.45;;
30307;SDS011;17114;52.314;8.910;2024-01-10T02:55:17;28.73;;;11.48;;
30307;SDS011;17114;52.314;8.910;2024-01-10T02:57:44;31.90;;;12.13;;
30307;SDS011;17114;52.314;8.910;2024-01-10T03:00:11;27.40;;;11.80;;
30307;SDS011;17114;52.314;8.910;2024-01-10T03:02:38;30.27;;;11.57;;
30307;SDS011;17114;52.314;8.910;2024-01-10T03:05:05;27.25;;;10.65;;
30307;SDS011;17114;52.314;8.910;2024-01-10T03:07:32;25.38;;;10.85;;
30307;SDS011;17114;52.314;8.910;2024-01-10T03:09:59;31.80;;;12.52;;
30307;SDS011;17114;52.314;8.910;2024-01-10T03:12:26;29.15;;;11.85;;
30307;SDS011;17114;52.314;8.910;2024-01-10T03:14:53;28.58;;;11.85;;
30307;SDS011;17114;52.314;8.910;2024-01-10T03:17:20;24.83;;;11.48;;
30307;SDS011;17114;52.314;8.910;2024-01-10T03:19:48;27.85;;;12.00;;
30307;SDS011;17114;52.314;8.910;2024-01-10T03:22:15;34.40;;;11.85;;
30307;SDS011;17114;52.314;8.910;2024-01-10T03:24:42;28.02;;;12.10;;
30307;SDS011;17114;52.314;8.910;2024-01-10T03:27:09;31.08;;;12.10;;
30307;SDS011;17114;52.314;8.910;2024-01-10T03:29:36;31.30;;;12.25;;
30307;SDS011;17114;52.314;8.910;2024-01-10T03:32:03;31.52;;;12.73;;
30307;SDS011;17114;52.314;8.910;2024-01-10T03:34:30;29.05;;;12.45;;
30307;SDS011;17114;52.314;8.910;2024-01-10T03:36:57;29.35;;;13.20;;
30307;SDS011;17114;52.314;8.910;2024-01-10T03:39:24;34.50;;;13.40;;
30307;SDS011;17114;52.314;8.910;2024-01-10T03:41:51;28.70;;;12.60;;
30307;SDS011;17114;52.314;8.910;2024-01-10T03:44:18;35.95;;;13.32;;
30307;SDS011;17114;52.314;8.910;2024-01-10T03:46:45;34.90;;;14.15;;
30307;SDS011;17114;52.314;8.910;2024-01-10T03:49:11;29.95;;;13.55;;
30307;SDS011;17114;52.314;8.910;2024-01-10T03:51:38;31.30;;;14.05;;
30307;SDS011;17114;52.314;8.910;2024-01-10T03:54:06;32.92;;;14.73;;
30307;SDS011;17114;52.314;8.910;2024-01-10T03:56:33;36.55;;;14.88;;
30307;SDS011;17114;52.314;8.910;2024-01-10T03:59:00;39.30;;;15.27;;
30307;SDS011;17114;52.314;8.910;2024-01-10T04:01:28;37.75;;;14.77;;
30307;SDS011;17114;52.314;8.910;2024-01-10T04:03:55;39.13;;;14.88;;
30307;SDS011;17114;52.314;8.910;2024-01-10T04:06:22;31.63;;;14.45;;
30307;SDS011;17114;52.314;8.910;2024-01-10T04:08:50;36.50;;;14.80;;
30307;SDS011;17114;52.314;8.910;2024-01-10T04:11:17;39.50;;;16.17;;
30307;SDS011;17114;52.314;8.910;2024-01-10T04:13:44;32.53;;;15.25;;
30307;SDS011;17114;52.314;8.910;2024-01-10T04:16:11;36.20;;;15.98;;
30307;SDS011;17114;52.314;8.910;2024-01-10T04:18:39;36.60;;;15.63;;
30307;SDS011;17114;52.314;8.910;2024-01-10T04:21:07;35.33;;;15.57;;
30307;SDS011;17114;52.314;8.910;2024-01-10T04:23:35;32.35;;;14.70;;
30307;SDS011;17114;52.314;8.910;2024-01-10T04:26:02;32.30;;;13.50;;
30307;SDS011;17114;52.314;8.910;2024-01-10T04:28:29;35.22;;;14.30;;
30307;SDS011;17114;52.314;8.910;2024-01-10T04:30:56;38.15;;;15.43;;
30307;SDS011;17114;52.314;8.910;2024-01-10T04:33:23;41.38;;;16.63;;
30307;SDS011;17114;52.314;8.910;2024-01-10T04:35:50;35.63;;;14.40;;
30307;SDS011;17114;52.314;8.910;2024-01-10T04:38:17;34.38;;;13.20;;
30307;SDS011;17114;52.314;8.910;2024-01-10T04:40:45;34.55;;;15.60;;
30307;SDS011;17114;52.314;8.910;2024-01-10T04:43:11;39.40;;;16.45;;
30307;SDS011;17114;52.314;8.910;2024-01-10T04:45:38;38.92;;;15.65;;
30307;SDS011;17114;52.314;8.910;2024-01-10T04:48:05;38.80;;;15.63;;
30307;SDS011;17114;52.314;8.910;2024-01-10T04:50:34;35.22;;;14.95;;
30307;SDS011;17114;52.314;8.910;2024-01-10T04:53:01;40.15;;;15.02;;
30307;SDS011;17114;52.314;8.910;2024-01-10T04:55:28;37.80;;;16.58;;
30307;SDS011;17114;52.314;8.910;2024-01-10T04:57:55;36.20;;;15.25;;
30307;SDS011;17114;52.314;8.910;2024-01-10T05:00:22;35.35;;;15.57;;
30307;SDS011;17114;52.314;8.910;2024-01-10T05:02:49;41.72;;;16.50;;
30307;SDS011;17114;52.314;8.910;2024-01-10T05:05:18;33.30;;;15.10;;
30307;SDS011;17114;52.314;8.910;2024-01-10T05:07:50;39.85;;;16.92;;
30307;SDS011;17114;52.314;8.910;2024-01-10T05:10:17;45.45;;;15.77;;
30307;SDS011;17114;52.314;8.910;2024-01-10T05:12:44;43.58;;;16.67;;
30307;SDS011;17114;52.314;8.910;2024-01-10T05:15:11;35.70;;;15.95;;
30307;SDS011;17114;52.314;8.910;2024-01-10T05:17:38;31.80;;;14.82;;
30307;SDS011;17114;52.314;8.910;2024-01-10T05:20:05;34.28;;;15.57;;
30307;SDS011;17114;52.314;8.910;2024-01-10T05:22:33;38.72;;;16.30;;
30307;SDS011;17114;52.314;8.910;2024-01-10T05:25:00;38.38;;;15.88;;
30307;SDS011;17114;52.314;8.910;2024-01-10T05:27:27;34.38;;;15.02;;
30307;SDS011;17114;52.314;8.910;2024-01-10T05:29:54;41.88;;;16.05;;
30307;SDS011;17114;52.314;8.910;2024-01-10T05:32:21;37.83;;;15.18;;
30307;SDS011;17114;52.314;8.910;2024-01-10T05:34:48;37.10;;;16.02;;
30307;SDS011;17114;52.314;8.910;2024-01-10T05:37:15;35.70;;;15.40;;
30307;SDS011;17114;52.314;8.910;2024-01-10T05:39:42;36.33;;;15.68;;
30307;SDS011;17114;52.314;8.910;2024-01-10T05:42:09;38.65;;;17.33;;
30307;SDS011;17114;52.314;8.910;2024-01-10T05:44:37;40.83;;;16.45;;
30307;SDS011;17114;52.314;8.910;2024-01-10T05:47:05;40.08;;;16.05;;
30307;SDS011;17114;52.314;8.910;2024-01-10T05:49:32;38.13;;;17.05;;
30307;SDS011;17114;52.314;8.910;2024-01-10T05:51:59;38.67;;;15.65;;
30307;SDS011;17114;52.314;8.910;2024-01-10T05:54:26;37.30;;;15.55;;
30307;SDS011;17114;52.314;8.910;2024-01-10T05:56:54;39.97;;;15.93;;
30307;SDS011;17114;52.314;8.910;2024-01-10T05:59:21;34.25;;;16.23;;
30307;SDS011;17114;52.314;8.910;2024-01-10T06:01:48;46.78;;;17.33;;
30307;SDS011;17114;52.314;8.910;2024-01-10T06:04:15;37.47;;;16.60;;
30307;SDS011;17114;52.314;8.910;2024-01-10T06:06:43;37.17;;;16.70;;
30307;SDS011;17114;52.314;8.910;2024-01-10T06:09:11;39.67;;;15.48;;
30307;SDS011;17114;52.314;8.910;2024-01-10T06:11:42;42.00;;;17.42;;
30307;SDS011;17114;52.314;8.910;2024-01-10T06:14:09;40.40;;;17.38;;
30307;SDS011;17114;52.314;8.910;2024-01-10T06:16:37;44.17;;;17.83;;
30307;SDS011;17114;52.314;8.910;2024-01-10T06:19:04;44.95;;;17.90;;
30307;SDS011;17114;52.314;8.910;2024-01-10T06:21:31;41.53;;;17.48;;
30307;SDS011;17114;52.314;8.910;2024-01-10T06:23:58;43.10;;;17.17;;
30307;SDS011;17114;52.314;8.910;2024-01-10T06:26:26;46.88;;;18.35;;
30307;SDS011;17114;52.314;8.910;2024-01-10T06:28:53;44.88;;;16.58;;
30307;SDS011;17114;52.314;8.910;2024-01-10T06:31:20;49.40;;;19.42;;
30307;SDS011;17114;52.314;8.910;2024-01-10T06:33:47;40.90;;;16.58;;
30307;SDS011;17114;52.314;8.910;2024-01-10T06:36:14;43.35;;;18.65;;
30307;SDS011;17114;52.314;8.910;2024-01-10T06:38:41;40.22;;;16.20;;
30307;SDS011;17114;52.314;8.910;2024-01-10T06:41:08;38.92;;;16.65;;
30307;SDS011;17114;52.314;8.910;2024-01-10T06:43:36;36.88;;;17.35;;
30307;SDS011;17114;52.314;8.910;2024-01-10T06:46:03;40.20;;;17.15;;
30307;SDS011;17114;52.314;8.910;2024-01-10T06:48:30;49.72;;;18.27;;
30307;SDS011;17114;52.314;8.910;2024-01-10T06:51:00;42.92;;;17.58;;
30307;SDS011;17114;52.314;8.910;2024-01-10T06:53:27;43.70;;;17.73;;
30307;SDS011;17114;52.314;8.910;2024-01-10T06:55:54;44.38;;;17.17;;
30307;SDS011;17114;52.314;8.910;2024-01-10T06:58:21;46.65;;;18.85;;
30307;SDS011;17114;52.314;8.910;2024-01-10T07:00:48;43.67;;;18.80;;
30307;SDS011;17114;52.314;8.910;2024-01-10T07:03:17;40.90;;;16.75;;
30307;SDS011;17114;52.314;8.910;2024-01-10T07:05:44;48.03;;;19.08;;
30307;SDS011;17114;52.314;8.910;2024-01-10T07:08:11;43.20;;;18.85;;
30307;SDS011;17114;52.314;8.910;2024-01-10T07:10:38;42.05;;;19.10;;
30307;SDS011;17114;52.314;8.910;2024-01-10T07:13:05;42.05;;;18.80;;
30307;SDS011;17114;52.314;8.910;2024-01-10T07:15:33;46.85;;;18.52;;
30307;SDS011;17114;52.314;8.910;2024-01-10T07:18:00;52.05;;;19.25;;
30307;SDS011;17114;52.314;8.910;2024-01-10T07:20:27;50.75;;;20.65;;
30307;SDS011;17114;52.314;8.910;2024-01-10T07:22:54;48.85;;;19.13;;
30307;SDS011;17114;52.314;8.910;2024-01-10T07:25:21;45.05;;;18.77;;
30307;SDS011;17114;52.314;8.910;2024-01-10T07:27:51;43.58;;;19.05;;
30307;SDS011;17114;52.314;8.910;2024-01-10T07:30:18;55.70;;;19.90;;
30307;SDS011;17114;52.314;8.910;2024-01-10T07:32:46;44.60;;;19.95;;
30307;SDS011;17114;52.314;8.910;2024-01-10T07:35:13;48.33;;;19.83;;
30307;SDS011;17114;52.314;8.910;2024-01-10T07:37:41;53.15;;;20.63;;
30307;SDS011;17114;52.314;8.910;2024-01-10T07:40:09;52.20;;;19.88;;
30307;SDS011;17114;52.314;8.910;2024-01-10T07:42:37;45.47;;;18.67;;
30307;SDS011;17114;52.314;8.910;2024-01-10T07:45:05;49.55;;;20.88;;
30307;SDS011;17114;52.314;8.910;2024-01-10T07:47:34;49.60;;;19.90;;
30307;SDS011;17114;52.314;8.910;2024-01-10T07:52:33;52.60;;;20.77;;
30307;SDS011;17114;52.314;8.910;2024-01-10T07:55:00;52.38;;;20.55;;
30307;SDS011;17114;52.314;8.910;2024-01-10T07:57:27;55.88;;;21.65;;
30307;SDS011;17114;52.314;8.910;2024-01-10T07:59:54;53.03;;;21.80;;
30307;SDS011;17114;52.314;8.910;2024-01-10T08:02:22;54.83;;;22.50;;
30307;SDS011;17114;52.314;8.910;2024-01-10T08:04:49;49.33;;;21.20;;
30307;SDS011;17114;52.314;8.910;2024-01-10T08:07:16;55.72;;;22.10;;
30307;SDS011;17114;52.314;8.910;2024-01-10T08:09:43;59.20;;;22.58;;
30307;SDS011;17114;52.314;8.910;2024-01-10T08:12:10;53.97;;;22.17;;
30307;SDS011;17114;52.314;8.910;2024-01-10T08:14:38;58.63;;;23.00;;
30307;SDS011;17114;52.314;8.910;2024-01-10T08:17:06;57.20;;;22.40;;
30307;SDS011;17114;52.314;8.910;2024-01-10T08:19:33;53.65;;;21.92;;
30307;SDS011;17114;52.314;8.910;2024-01-10T08:22:02;52.42;;;22.05;;
30307;SDS011;17114;52.314;8.910;2024-01-10T08:24:29;53.00;;;21.33;;
30307;SDS011;17114;52.314;8.910;2024-01-10T08:26:56;54.55;;;21.40;;
30307;SDS011;17114;52.314;8.910;2024-01-10T08:29:23;52.97;;;20.98;;
30307;SDS011;17114;52.314;8.910;2024-01-10T08:31:56;50.75;;;20.63;;
30307;SDS011;17114;52.314;8.910;2024-01-10T08:34:24;58.63;;;22.90;;
30307;SDS011;17114;52.314;8.910;2024-01-10T08:36:51;47.88;;;19.25;;
30307;SDS011;17114;52.314;8.910;2024-01-10T08:39:18;56.38;;;22.92;;
30307;SDS011;17114;52.314;8.910;2024-01-10T08:41:45;58.80;;;22.38;;
30307;SDS011;17114;52.314;8.910;2024-01-10T08:44:13;62.13;;;22.23;;
30307;SDS011;17114;52.314;8.910;2024-01-10T08:46:40;59.75;;;23.13;;
30307;SDS011;17114;52.314;8.910;2024-01-10T08:49:07;53.72;;;23.50;;
30307;SDS011;17114;52.314;8.910;2024-01-10T08:51:34;60.58;;;22.13;;
30307;SDS011;17114;52.314;8.910;2024-01-10T08:54:01;54.60;;;22.30;;
30307;SDS011;17114;52.314;8.910;2024-01-10T08:56:28;55.38;;;22.67;;
30307;SDS011;17114;52.314;8.910;2024-01-10T08:58:55;55.00;;;22.92;;
30307;SDS011;17114;52.314;8.910;2024-01-10T09:01:23;60.10;;;24.00;;
30307;SDS011;17114;52.314;8.910;2024-01-10T09:03:50;53.78;;;21.58;;
30307;SDS011;17114;52.314;8.910;2024-01-10T09:06:17;56.88;;;23.25;;
30307;SDS011;17114;52.314;8.910;2024-01-10T09:08:44;59.58;;;22.38;;
30307;SDS011;17114;52.314;8.910;2024-01-10T09:11:12;52.15;;;22.25;;
30307;SDS011;17114;52.314;8.910;2024-01-10T09:13:39;56.95;;;23.83;;
30307;SDS011;17114;52.314;8.910;2024-01-10T09:16:07;60.53;;;22.85;;
30307;SDS011;17114;52.314;8.910;2024-01-10T09:18:34;53.92;;;21.98;;
30307;SDS011;17114;52.314;8.910;2024-01-10T09:21:01;54.67;;;22.85;;
30307;SDS011;17114;52.314;8.910;2024-01-10T09:23:30;61.30;;;23.17;;
30307;SDS011;17114;52.314;8.910;2024-01-10T09:25:57;55.17;;;22.55;;
30307;SDS011;17114;52.314;8.910;2024-01-10T09:28:24;63.47;;;24.00;;
30307;SDS011;17114;52.314;8.910;2024-01-10T09:30:52;59.03;;;23.55;;
30307;SDS011;17114;52.314;8.910;2024-01-10T09:33:20;54.63;;;22.05;;
30307;SDS011;17114;52.314;8.910;2024-01-10T09:35:49;55.22;;;22.13;;
30307;SDS011;17114;52.314;8.910;2024-01-10T09:38:16;55.17;;;23.17;;
30307;SDS011;17114;52.314;8.910;2024-01-10T09:40:43;56.08;;;22.95;;
30307;SDS011;17114;52.314;8.910;2024-01-10T09:43:10;61.05;;;23.58;;
30307;SDS011;17114;52.314;8.910;2024-01-10T09:45:40;61.88;;;24.05;;
30307;SDS011;17114;52.314;8.910;2024-01-10T09:48:13;53.42;;;21.55;;
30307;SDS011;17114;52.314;8.910;2024-01-10T09:50:42;58.40;;;22.60;;
30307;SDS011;17114;52.314;8.910;2024-01-10T09:53:11;61.72;;;23.67;;
30307;SDS011;17114;52.314;8.910;2024-01-10T09:55:44;52.33;;;21.50;;
30307;SDS011;17114;52.314;8.910;2024-01-10T09:58:12;54.47;;;23.63;;
30307;SDS011;17114;52.314;8.910;2024-01-10T10:00:39;57.33;;;22.88;;
30307;SDS011;17114;52.314;8.910;2024-01-10T10:03:07;56.70;;;22.95;;
30307;SDS011;17114;52.314;8.910;2024-01-10T10:05:37;55.15;;;23.08;;
30307;SDS011;17114;52.314;8.910;2024-01-10T10:08:12;54.10;;;23.38;;
30307;SDS011;17114;52.314;8.910;2024-01-10T10:10:49;53.05;;;22.77;;
30307;SDS011;17114;52.314;8.910;2024-01-10T10:13:26;55.72;;;21.98;;
30307;SDS011;17114;52.314;8.910;2024-01-10T10:16:00;54.35;;;21.75;;
30307;SDS011;17114;52.314;8.910;2024-01-10T10:21:09;55.38;;;23.08;;
30307;SDS011;17114;52.314;8.910;2024-01-10T10:23:41;40.33;;;16.37;;
30307;SDS011;17114;52.314;8.910;2024-01-10T10:26:16;52.63;;;21.75;;
30307;SDS011;17114;52.314;8.910;2024-01-10T10:28:48;55.20;;;23.25;;
30307;SDS011;17114;52.314;8.910;2024-01-10T10:31:16;55.70;;;22.55;;
30307;SDS011;17114;52.314;8.910;2024-01-10T10:33:44;52.50;;;23.58;;
30307;SDS011;17114;52.314;8.910;2024-01-10T10:36:14;49.05;;;22.25;;
30307;SDS011;17114;52.314;8.910;2024-01-10T10:38:42;51.00;;;22.70;;
30307;SDS011;17114;52.314;8.910;2024-01-10T10:41:09;54.17;;;21.65;;
30307;SDS011;17114;52.314;8.910;2024-01-10T10:43:40;56.88;;;23.73;;
30307;SDS011;17114;52.314;8.910;2024-01-10T10:46:08;54.63;;;22.77;;
30307;SDS011;17114;52.314;8.910;2024-01-10T10:48:39;51.90;;;21.92;;
30307;SDS011;17114;52.314;8.910;2024-01-10T10:51:24;51.30;;;22.27;;
30307;SDS011;17114;52.314;8.910;2024-01-10T10:53:53;54.30;;;22.73;;
30307;SDS011;17114;52.314;8.910;2024-01-10T10:56:22;57.00;;;22.25;;
30307;SDS011;17114;52.314;8.910;2024-01-10T10:58:50;51.30;;;22.90;;
30307;SDS011;17114;52.314;8.910;2024-01-10T11:01:19;48.05;;;22.35;;
30307;SDS011;17114;52.314;8.910;2024-01-10T11:03:48;52.75;;;24.23;;
30307;SDS011;17114;52.314;8.910;2024-01-10T11:06:15;49.15;;;22.15;;
30307;SDS011;17114;52.314;8.910;2024-01-10T11:08:46;55.10;;;21.70;;
30307;SDS011;17114;52.314;8.910;2024-01-10T11:17:01;58.20;;;23.30;;
30307;SDS011;17114;52.314;8.910;2024-01-10T11:25:14;50.88;;;23.02;;
30307;SDS011;17114;52.314;8.910;2024-01-10T11:27:42;55.42;;;22.95;;
30307;SDS011;17114;52.314;8.910;2024-01-10T11:30:10;53.45;;;22.83;;
30307;SDS011;17114;52.314;8.910;2024-01-10T11:32:38;54.83;;;23.27;;
30307;SDS011;17114;52.314;8.910;2024-01-10T11:35:05;51.78;;;22.83;;
30307;SDS011;17114;52.314;8.910;2024-01-10T11:37:45;55.15;;;23.15;;
30307;SDS011;17114;52.314;8.910;2024-01-10T11:40:16;50.92;;;22.95;;
30307;SDS011;17114;52.314;8.910;2024-01-10T11:43:13;57.75;;;23.90;;
30307;SDS011;17114;52.314;8.910;2024-01-10T11:45:50;55.92;;;22.63;;
30307;SDS011;17114;52.314;8.910;2024-01-10T11:48:27;57.53;;;23.92;;
30307;SDS011;17114;52.314;8.910;2024-01-10T11:50:56;53.33;;;22.63;;
30307;SDS011;17114;52.314;8.910;2024-01-10T11:53:41;57.67;;;23.27;;
30307;SDS011;17114;52.314;8.910;2024-01-10T11:56:10;56.90;;;23.80;;
30307;SDS011;17114;52.314;8.910;2024-01-10T11:58:51;55.08;;;22.60;;
30307;SDS011;17114;52.314;8.910;2024-01-10T12:01:38;55.03;;;22.42;;
30307;SDS011;17114;52.314;8.910;2024-01-10T12:04:07;52.55;;;22.75;;
30307;SDS011;17114;52.314;8.910;2024-01-10T12:06:45;52.03;;;22.67;;
30307;SDS011;17114;52.314;8.910;2024-01-10T12:09:14;52.28;;;22.00;;
30307;SDS011;17114;52.314;8.910;2024-01-10T12:11:41;54.17;;;24.02;;
30307;SDS011;17114;52.314;8.910;2024-01-10T12:14:09;47.63;;;22.10;;
30307;SDS011;17114;52.314;8.910;2024-01-10T12:16:36;58.90;;;24.50;;
30307;SDS011;17114;52.314;8.910;2024-01-10T12:19:05;54.22;;;23.25;;
30307;SDS011;17114;52.314;8.910;2024-01-10T12:21:32;52.17;;;22.15;;
30307;SDS011;17114;52.314;8.910;2024-01-10T12:23:59;52.53;;;23.02;;
30307;SDS011;17114;52.314;8.910;2024-01-10T12:26:26;53.65;;;22.63;;
30307;SDS011;17114;52.314;8.910;2024-01-10T12:28:54;57.33;;;23.60;;
30307;SDS011;17114;52.314;8.910;2024-01-10T12:31:27;57.35;;;22.73;;
30307;SDS011;17114;52.314;8.910;2024-01-10T12:33:56;56.70;;;23.13;;
30307;SDS011;17114;52.314;8.910;2024-01-10T12:36:24;51.50;;;21.75;;
30307;SDS011;17114;52.314;8.910;2024-01-10T12:38:51;53.80;;;24.08;;
30307;SDS011;17114;52.314;8.910;2024-01-10T12:41:18;59.25;;;23.63;;
30307;SDS011;17114;52.314;8.910;2024-01-10T12:43:52;54.80;;;23.27;;
30307;SDS011;17114;52.314;8.910;2024-01-10T12:46:21;54.35;;;22.48;;
30307;SDS011;17114;52.314;8.910;2024-01-10T12:48:58;61.28;;;23.75;;
30307;SDS011;17114;52.314;8.910;2024-01-10T12:51:27;59.33;;;23.52;;
30307;SDS011;17114;52.314;8.910;2024-01-10T12:53:58;54.80;;;22.58;;
30307;SDS011;17114;52.314;8.910;2024-01-10T12:56:26;50.85;;;23.92;;
30307;SDS011;17114;52.314;8.910;2024-01-10T12:58:54;56.38;;;23.60;;
30307;SDS011;17114;52.314;8.910;2024-01-10T13:01:22;56.63;;;22.52;;
30307;SDS011;17114;52.314;8.910;2024-01-10T13:03:50;49.17;;;22.00;;
30307;SDS011;17114;52.314;8.910;2024-01-10T13:06:19;52.90;;;23.27;;
30307;SDS011;17114;52.314;8.910;2024-01-10T13:08:49;55.42;;;22.13;;
30307;SDS011;17114;52.314;8.910;2024-01-10T13:11:16;51.15;;;22.52;;
30307;SDS011;17114;52.314;8.910;2024-01-10T13:13:43;54.85;;;23.90;;
30307;SDS011;17114;52.314;8.910;2024-01-10T13:16:10;52.20;;;23.17;;
30307;SDS011;17114;52.314;8.910;2024-01-10T13:18:39;51.40;;;22.20;;
30307;SDS011;17114;52.314;8.910;2024-01-10T13:21:06;53.92;;;23.15;;
30307;SDS011;17114;52.314;8.910;2024-01-10T13:23:34;52.28;;;23.05;;
30307;SDS011;17114;52.314;8.910;2024-01-10T13:26:03;49.83;;;22.50;;
30307;SDS011;17114;52.314;8.910;2024-01-10T13:28:30;57.80;;;23.65;;
30307;SDS011;17114;52.314;8.910;2024-01-10T13:30:57;57.17;;;22.35;;
30307;SDS011;17114;52.314;8.910;2024-01-10T13:33:25;55.03;;;22.83;;
30307;SDS011;17114;52.314;8.910;2024-01-10T13:35:52;64.25;;;23.25;;
30307;SDS011;17114;52.314;8.910;2024-01-10T13:38:20;55.17;;;22.38;;
30307;SDS011;17114;52.314;8.910;2024-01-10T13:40:47;59.28;;;22.63;;
30307;SDS011;17114;52.314;8.910;2024-01-10T13:43:15;63.38;;;23.80;;
30307;SDS011;17114;52.314;8.910;2024-01-10T13:45:42;55.28;;;22.13;;
30307;SDS011;17114;52.314;8.910;2024-01-10T13:48:09;55.72;;;23.08;;
30307;SDS011;17114;52.314;8.910;2024-01-10T13:50:37;61.65;;;25.52;;
30307;SDS011;17114;52.314;8.910;2024-01-10T13:53:04;58.38;;;23.70;;
30307;SDS011;17114;52.314;8.910;2024-01-10T13:55:32;58.20;;;23.85;;
30307;SDS011;17114;52.314;8.910;2024-01-10T13:57:59;53.00;;;22.60;;
30307;SDS011;17114;52.314;8.910;2024-01-10T14:00:26;59.28;;;23.35;;
30307;SDS011;17114;52.314;8.910;2024-01-10T14:02:53;57.75;;;23.48;;
30307;SDS011;17114;52.314;8.910;2024-01-10T14:05:26;62.47;;;23.45;;
30307;SDS011;17114;52.314;8.910;2024-01-10T14:07:54;56.83;;;24.13;;
30307;SDS011;17114;52.314;8.910;2024-01-10T14:10:21;54.03;;;22.55;;
30307;SDS011;17114;52.314;8.910;2024-01-10T14:12:48;58.47;;;24.33;;
30307;SDS011;17114;52.314;8.910;2024-01-10T14:15:15;68.00;;;23.83;;
30307;SDS011;17114;52.314;8.910;2024-01-10T14:17:42;53.67;;;24.35;;
30307;SDS011;17114;52.314;8.910;2024-01-10T14:20:09;63.80;;;24.73;;
30307;SDS011;17114;52.314;8.910;2024-01-10T14:22:37;60.60;;;23.38;;
30307;SDS011;17114;52.314;8.910;2024-01-10T14:25:04;59.38;;;23.80;;
30307;SDS011;17114;52.314;8.910;2024-01-10T14:27:32;57.50;;;23.55;;
30307;SDS011;17114;52.314;8.910;2024-01-10T14:29:59;62.58;;;24.73;;
30307;SDS011;17114;52.314;8.910;2024-01-10T14:32:26;60.75;;;24.42;;
30307;SDS011;17114;52.314;8.910;2024-01-10T14:34:54;56.50;;;24.17;;
30307;SDS011;17114;52.314;8.910;2024-01-10T14:37:21;61.20;;;25.15;;
30307;SDS011;17114;52.314;8.910;2024-01-10T14:39:49;55.80;;;22.77;;
30307;SDS011;17114;52.314;8.910;2024-01-10T14:42:17;57.13;;;24.15;;
30307;SDS011;17114;52.314;8.910;2024-01-10T14:44:44;55.08;;;23.52;;